• Join FlightAware (Why Join?)
  • Login
  • US Flag 
12:19AM EDT


 

Airport Tracker/Info


-or-


 

Live Flight TrackerFlight Track Log ✈ ASQ5941 ✈ 21-Apr-2013 ✈ KAVP - KORD

Flight Track Log - Related Links

Times and Time Zones

All times are in EDT time to prevent confusion due to time zone crossing. See the ASQ5941 flight status page for this flight to view local times or setup timezone preferences in your user account.

Time Position Orientation Groundspeed Altitude Reporting Facility
EDT Latitude Longitude Course Direction KTS MPH feet Rate Location/Type
07:02PM 41.4078 -75.6725 307° West 184 212 4,800  Level New York Center
07:03PM 41.4561 -75.7147 327° Northwest 234 269 6,700 1,860 Climbing New York Center
07:04PM 41.5119 -75.7742 321° Northwest 244 281 8,600 2,040 Climbing New York Center
07:05PM 41.5753 -75.8511 318° Northwest 267 307 10,900 1,680 Climbing New York Center
07:06PM 41.5430 -76.1229 312° West  Level FlightAware Approximate
07:06PM 41.6103 -75.9536 295° West 289 333 12,000  Level New York Center
07:07PM 41.6132 -76.2186 306° West  Level FlightAware Approximate
07:07PM 41.6425 -76.0725 290° West 324 373 13,000  Level New York Center
07:08PM 41.6727 -76.3272 307° West  Level FlightAware Approximate
07:08PM 41.6750 -76.1864 291° West 358 412 13,100  Level New York Center
07:09PM 41.7142 -76.3283 290° West 370 426 13,000 540 Descending New York Center
07:10PM 41.7500 -76.4539 291° West 370 426 14,200 1,260 Climbing New York Center
07:11PM 41.7817 -76.5706 290° West 370 426 15,600 1,380 Climbing New York Center
07:12PM 41.8133 -76.6903 290° West 370 426 17,100 1,080 Climbing New York Center
07:13PM 41.8489 -76.8131 291° West 360 414 17,800 1,080 Climbing New York Center
07:15PM 41.9042 -77.0033 291° West 364 419 19,800 1,380 Climbing Cleveland Center
07:16PM 41.9353 -77.1300 288° West 364 419 21,200 1,320 Climbing Cleveland Center
07:17PM 41.9722 -77.2567 291° West 364 419 22,500 1,260 Climbing Cleveland Center
07:18PM 42.0050 -77.3806 290° West 359 413 23,800 720 Climbing Cleveland Center
07:19PM 42.0400 -77.5133 290° West 364 419 24,000 60 Climbing Cleveland Center
07:20PM 42.0747 -77.6514 289° West 381 438 24,000 -60 Level Cleveland Center
07:21PM 42.1161 -77.7978 291° West 395 455 23,900  Descending Cleveland Center
07:22PM 42.1528 -77.9419 289° West 407 468 24,000  Climbing Cleveland Center
07:23PM 42.1914 -78.0889 290° West 412 474 24,000  Level Cleveland Center
07:24PM 42.2300 -78.2333 290° West 412 474 24,000  Level Cleveland Center
07:25PM 42.2661 -78.3778 289° West 417 480 24,000  Level Cleveland Center
07:26PM 42.3042 -78.5225 290° West 417 480 24,000  Level Cleveland Center
07:27PM 42.3403 -78.6703 288° West 417 480 24,000  Level Cleveland Center
07:28PM 42.3694 -78.8125 286° West 417 480 24,000  Level Cleveland Center
07:29PM 42.3864 -78.9669 278° West 412 474 24,000  Level Cleveland Center
07:30PM 42.4031 -79.1183 279° West 412 474 24,000  Level Cleveland Center
07:31PM 42.4194 -79.2642 279° West 406 467 24,000  Level Cleveland Center
07:32PM 42.4378 -79.4156 279° West 411 473 24,000  Level Cleveland Center
07:33PM 42.4536 -79.5672 278° West 411 473 24,000  Level Cleveland Center
07:34PM 42.4736 -79.7161 280° West 405 466 24,000  Level Cleveland Center
07:35PM 42.4914 -79.8653 279° West 405 466 24,000  Level Cleveland Center
07:36PM 42.4983 -80.0031 274° West 405 466 24,000  Level Cleveland Center
07:37PM 42.5156 -80.1522 279° West 405 466 24,000  Level Cleveland Center
07:38PM 42.5286 -80.3014 277° West 405 466 24,000  Level Cleveland Center
07:39PM 42.5456 -80.4564 278° West 410 472 24,000  Level Cleveland Center
07:40PM 42.5603 -80.6086 278° West 410 472 24,000  Level Cleveland Center
07:41PM 42.5767 -80.7719 278° West 405 466 24,000  Level Cleveland Center
07:42PM 42.5911 -80.9217 278° West 405 466 24,000  Level Cleveland Center
07:43PM 42.6050 -81.0739 277° West 405 466 24,000  Level Cleveland Center
07:44PM 42.6211 -81.2236 278° West 405 466 24,000  Level Cleveland Center
07:45PM 42.6347 -81.3733 277° West 405 466 24,000  Level Cleveland Center
07:46PM 42.6481 -81.5203 277° West 405 466 24,000  Level Cleveland Center
07:47PM 42.6614 -81.6703 277° West 405 466 24,000  Level Cleveland Center
07:48PM 42.6725 -81.8058 276° West 405 466 24,000  Level Cleveland Center
07:49PM 42.6856 -81.9558 277° West 405 466 24,000  Level Cleveland Center
07:50PM 42.6981 -82.1058 277° West 405 466 24,000  Level Cleveland Center
07:51PM 42.7106 -82.2589 276° West 405 466 24,000  Level Cleveland Center
07:52PM 42.7250 -82.4061 278° West 405 466 24,000  Level Cleveland Center
07:53PM 42.7350 -82.5592 275° West 405 466 24,000  Level Cleveland Center
07:54PM 42.7489 -82.7094 277° West 405 466 24,000  Level Cleveland Center
07:55PM 42.7608 -82.8597 276° West 405 466 24,000  Level Cleveland Center
07:56PM 42.7742 -83.0158 277° West 411 473 24,000  Level Cleveland Center
07:57PM 42.7833 -83.1689 275° West 411 473 24,000  Level Cleveland Center
07:58PM 42.7947 -83.3164 276° West 406 467 24,000  Level Cleveland Center
07:59PM 42.8075 -83.4728 276° West 406 467 24,000  Level Cleveland Center
08:00PM 42.8181 -83.6233 276° West 406 467 24,000  Level Cleveland Center
08:01PM 42.8286 -83.7794 275° West 406 467 24,000  Level Cleveland Center
08:02PM 42.8389 -83.9331 275° West 406 467 24,000  Level Cleveland Center
08:03PM 42.8489 -84.0836 275° West 406 467 24,000  Level Cleveland Center
08:04PM 42.8586 -84.2372 275° West 406 467 24,000  Level Cleveland Center
08:05PM 42.8706 -84.3908 276° West 406 467 24,000  Level Cleveland Center
08:05PM 42.8764 -84.4531 277° West 408 470 24,000  Level Chicago Center
08:06PM 42.8817 -84.6081 273° West 411 473 24,000  Level Chicago Center
08:07PM 42.8653 -84.7619 262° West 412 474 24,000  Level Chicago Center
08:08PM 42.8489 -84.9164 262° West 412 474 24,000  Level Chicago Center
08:09PM 42.8297 -85.1039 262° West 415 478 24,000  Level Chicago Center
08:10PM 42.8125 -85.2586 261° West 414 476 24,000  Level Chicago Center
08:11PM 42.7961 -85.4131 262° West 413 475 24,000  Level Chicago Center
08:12PM 42.7750 -85.5675 260° West 413 475 24,000  Level Chicago Center
08:13PM 42.7469 -85.7211 256° West 415 478 24,000  Level Chicago Center
08:14PM 42.7186 -85.8742 256° West 415 478 24,000 -300 Level Chicago Center
08:15PM 42.6911 -86.0278 256° West 415 478 23,500 -1,020 Descending Chicago Center
08:16PM 42.6639 -86.1778 256° West 409 471 22,000 -1,740 Descending Chicago Center
08:17PM 42.6306 -86.3514 255° West 398 458 20,000 -1,020 Descending Chicago Center
08:18PM 42.6042 -86.4908 256° West 385 443 20,000 -240 Level Chicago Center
08:19PM 42.5778 -86.6317 256° West 385 443 19,600 -1,020 Descending Chicago Center
08:20PM 42.5539 -86.7578 256° West 372 428 18,000 -2,160 Descending Chicago Center
08:21PM 42.5164 -86.8883 249° West 354 407 15,200 -2,580 Descending Chicago Center
08:23PM 42.4850 -87.0047 250° West 333 383 12,700 -2,220 Descending Chicago Center
08:24PM 42.4483 -87.1336 249° West 303 349 10,700 -1,620 Descending Chicago Center
08:25PM 42.4228 -87.2292 250° West 276 318 9,400 -840 Descending Chicago Center
08:26PM 42.3936 -87.3192 246° West 263 303 9,000 -360 Descending Chicago Center
08:27PM 42.3542 -87.4131 240° Southwest 260 299 8,700 -600 Descending Chicago Center
08:28PM 42.3181 -87.4969 240° Southwest 261 300 7,800 -840 Descending Chicago Center
08:29PM 42.2822 -87.5786 239° Southwest 254 292 7,000 -480 Descending Chicago Center
08:30PM 42.2303 -87.6408 222° Southwest 252 290 6,900 -600 Descending Chicago Center
08:31PM 42.1844 -87.6903 219° Southwest 217 250 5,800 -1,200 Descending Chicago Center
08:32PM 42.1397 -87.7389 219° Southwest 210 242 4,500 -1,380 Descending Chicago Center
08:32PM 42.1167 -87.7667 222° Southwest 204 235 3,900 -1,620 Descending Chicago TRACON